createdAt,value
2019-05-20T00:01:42.258Z,28.20
2019-05-20T00:04:10.557Z,28.97
2019-05-20T00:06:38.766Z,29.30
2019-05-20T00:09:07.056Z,29.47
2019-05-20T00:11:35.322Z,29.30
2019-05-20T00:14:03.511Z,30.00
2019-05-20T00:16:31.710Z,30.13
2019-05-20T00:18:59.921Z,29.50
2019-05-20T00:21:28.149Z,28.83
2019-05-20T00:23:56.352Z,28.87
2019-05-20T00:26:24.573Z,30.60
2019-05-20T00:28:52.789Z,28.20
2019-05-20T00:31:20.984Z,29.60
2019-05-20T00:33:49.217Z,30.67
2019-05-20T00:36:17.445Z,32.97
2019-05-20T00:38:47.337Z,31.40
2019-05-20T00:41:15.524Z,30.70
2019-05-20T00:43:43.804Z,29.43
2019-05-20T00:46:12.019Z,31.20
2019-05-20T00:48:40.240Z,30.50
2019-05-20T00:51:08.465Z,29.67
2019-05-20T00:53:36.690Z,29.87
2019-05-20T00:56:04.901Z,28.30
2019-05-20T00:58:33.115Z,29.27
2019-05-20T01:01:01.341Z,30.53
2019-05-20T01:03:29.528Z,27.57
2019-05-20T01:05:57.759Z,29.10
2019-05-20T01:08:25.979Z,29.40
2019-05-20T01:10:54.164Z,27.33
2019-05-20T01:13:22.381Z,29.57
2019-05-20T01:15:50.629Z,28.37
2019-05-20T01:18:18.841Z,29.53
2019-05-20T01:20:47.164Z,29.03
2019-05-20T01:23:15.360Z,28.70
2019-05-20T01:25:43.598Z,29.13
2019-05-20T01:28:11.793Z,30.77
2019-05-20T01:30:40.006Z,31.40
2019-05-20T01:33:13.700Z,29.17
2019-05-20T01:35:38.168Z,30.17
2019-05-20T01:38:06.371Z,29.47
2019-05-20T01:40:34.628Z,29.67
2019-05-20T01:43:02.832Z,28.67
2019-05-20T01:45:31.025Z,27.47
2019-05-20T01:47:59.253Z,28.60
2019-05-20T01:50:27.506Z,28.17
2019-05-20T01:52:55.789Z,28.40
2019-05-20T01:55:24.055Z,27.90
2019-05-20T01:57:52.285Z,29.30
2019-05-20T02:00:21.249Z,28.10
2019-05-20T02:02:49.506Z,26.00
2019-05-20T02:05:17.730Z,26.57
2019-05-20T02:07:45.990Z,26.00
2019-05-20T02:10:14.685Z,26.50
2019-05-20T02:12:42.897Z,26.93
2019-05-20T02:15:21.889Z,28.27
2019-05-20T02:17:50.072Z,26.70
2019-05-20T02:20:18.291Z,26.30
2019-05-20T02:22:46.509Z,27.10
2019-05-20T02:25:14.841Z,26.80
2019-05-20T02:27:43.064Z,26.70
2019-05-20T02:30:11.376Z,26.40
2019-05-20T02:32:39.628Z,26.90
2019-05-20T02:35:07.892Z,27.40
2019-05-20T02:37:36.130Z,27.63
2019-05-20T02:40:07.876Z,27.57
2019-05-20T02:42:36.121Z,27.77
2019-05-20T02:45:05.182Z,26.83
2019-05-20T02:47:33.386Z,27.87
2019-05-20T02:50:01.569Z,28.30
2019-05-20T02:52:29.773Z,27.33
2019-05-20T02:54:57.957Z,28.00
2019-05-20T02:57:26.170Z,28.67
2019-05-20T02:59:54.385Z,27.07
2019-05-20T03:02:22.614Z,28.70
2019-05-20T03:04:50.873Z,27.47
2019-05-20T03:07:19.109Z,26.80
2019-05-20T03:09:47.340Z,28.20
2019-05-20T03:12:15.600Z,27.70
2019-05-20T03:14:43.804Z,27.33
2019-05-20T03:17:12.032Z,28.30
2019-05-20T03:19:40.239Z,26.77
2019-05-20T03:22:08.504Z,28.20
2019-05-20T03:24:36.705Z,27.50
2019-05-20T03:27:04.961Z,27.37
2019-05-20T03:29:33.283Z,26.33
2019-05-20T03:32:01.508Z,28.97
2019-05-20T03:34:45.857Z,29.33
2019-05-20T03:36:59.725Z,28.20
2019-05-20T03:39:27.918Z,28.80
2019-05-20T03:41:56.109Z,29.33
2019-05-20T03:44:24.314Z,30.03
2019-05-20T03:46:52.514Z,29.17
2019-05-20T03:49:20.705Z,29.47
2019-05-20T03:51:52.327Z,30.33
2019-05-20T03:54:18.859Z,30.13
2019-05-20T03:56:47.082Z,28.60
2019-05-20T03:59:15.371Z,28.23
2019-05-20T04:01:43.657Z,28.40
2019-05-20T04:04:11.848Z,26.83
2019-05-20T04:06:40.106Z,27.57
2019-05-20T04:09:08.320Z,29.00
2019-05-20T04:11:36.518Z,29.33
2019-05-20T04:14:04.705Z,26.10
2019-05-20T04:16:32.896Z,28.50
2019-05-20T04:19:01.385Z,30.27
2019-05-20T04:21:29.579Z,29.63
2019-05-20T04:24:00.999Z,29.90
2019-05-20T04:26:27.757Z,29.90
2019-05-20T04:28:55.944Z,29.03
2019-05-20T04:31:24.205Z,30.00
2019-05-20T04:33:52.418Z,27.93
2019-05-20T04:36:20.630Z,28.70
2019-05-20T04:38:48.901Z,27.67
2019-05-20T04:41:17.127Z,27.40
2019-05-20T04:43:45.472Z,28.23
2019-05-20T04:46:14.935Z,26.40
2019-05-20T04:48:43.133Z,26.93
2019-05-20T04:51:13.809Z,27.43
2019-05-20T04:53:41.997Z,25.20
2019-05-20T04:56:10.225Z,26.90
2019-05-20T04:58:38.496Z,25.20
2019-05-20T05:01:06.711Z,25.87
2019-05-20T05:03:34.996Z,28.83
2019-05-20T05:06:03.197Z,25.97
2019-05-20T05:08:31.428Z,25.30
2019-05-20T05:10:59.695Z,27.50
2019-05-20T05:13:27.888Z,27.07
2019-05-20T05:15:56.154Z,25.93
2019-05-20T05:18:24.405Z,25.53
2019-05-20T05:20:52.657Z,25.77
2019-05-20T05:23:20.889Z,24.90
2019-05-20T05:25:49.209Z,25.40
2019-05-20T05:28:17.393Z,23.17
2019-05-20T05:30:46.053Z,25.23
2019-05-20T05:33:14.293Z,23.57
2019-05-20T05:35:52.736Z,24.40
2019-05-20T05:38:14.441Z,23.80
2019-05-20T05:40:42.708Z,23.17
2019-05-20T05:43:10.933Z,23.93
2019-05-20T05:45:39.436Z,22.80
2019-05-20T05:48:07.881Z,22.70
2019-05-20T05:50:36.117Z,22.70
2019-05-20T05:53:05.168Z,20.67
2019-05-20T05:55:33.380Z,21.87
2019-05-20T05:58:01.556Z,20.50
2019-05-20T06:00:29.791Z,20.77
2019-05-20T06:02:58.099Z,21.90
2019-05-20T06:05:26.392Z,20.43
2019-05-20T06:07:54.587Z,18.53
2019-05-20T06:10:22.944Z,20.10
2019-05-20T06:12:51.178Z,19.00
2019-05-20T06:15:19.500Z,19.00
2019-05-20T06:17:47.703Z,18.43
2019-05-20T06:20:16.418Z,17.90
2019-05-20T06:22:44.668Z,18.13
2019-05-20T06:25:13.082Z,17.80
2019-05-20T06:27:41.338Z,18.43
2019-05-20T06:30:10.793Z,17.10
2019-05-20T06:32:39.089Z,16.33
2019-05-20T06:35:07.440Z,16.13
2019-05-20T06:37:37.457Z,16.07
2019-05-20T06:40:06.108Z,16.90
2019-05-20T06:42:34.332Z,16.50
2019-05-20T06:45:02.718Z,17.00
2019-05-20T06:47:30.912Z,15.23
2019-05-20T06:49:59.118Z,15.23
2019-05-20T06:52:36.045Z,16.00
2019-05-20T06:54:57.251Z,15.03
2019-05-20T06:57:25.440Z,16.60
2019-05-20T06:59:53.662Z,14.70
2019-05-20T07:02:21.844Z,15.80
2019-05-20T07:04:50.068Z,14.70
2019-05-20T07:07:21.178Z,14.17
2019-05-20T07:09:49.192Z,14.53
2019-05-20T07:12:17.471Z,14.10
2019-05-20T07:14:45.809Z,14.10
2019-05-20T07:17:14.108Z,13.97
2019-05-20T07:19:42.304Z,13.10
2019-05-20T07:22:10.517Z,13.70
2019-05-20T07:24:38.757Z,12.70
2019-05-20T07:27:06.952Z,14.10
2019-05-20T07:29:35.140Z,13.27
2019-05-20T07:32:03.400Z,11.80
2019-05-20T07:34:31.585Z,11.50
2019-05-20T07:37:03.584Z,11.87
2019-05-20T07:39:29.726Z,12.10
2019-05-20T07:41:57.967Z,11.90
2019-05-20T07:44:26.156Z,12.00
2019-05-20T07:46:54.451Z,12.50
2019-05-20T07:49:22.898Z,11.70
2019-05-20T07:51:51.482Z,11.23
2019-05-20T07:54:20.276Z,11.30
2019-05-20T07:56:49.324Z,11.23
2019-05-20T07:59:19.144Z,10.50
2019-05-20T08:01:48.315Z,10.60
2019-05-20T08:04:16.576Z,10.70
2019-05-20T08:06:44.825Z,9.80
2019-05-20T08:09:13.018Z,10.30
2019-05-20T08:11:41.341Z,9.83
2019-05-20T08:14:09.690Z,9.53
2019-05-20T08:16:37.950Z,10.03
2019-05-20T08:19:06.199Z,9.80
2019-05-20T08:21:34.413Z,10.97
2019-05-20T08:24:02.654Z,9.93
2019-05-20T08:26:31.002Z,10.40
2019-05-20T08:28:59.290Z,9.73
2019-05-20T08:31:27.528Z,9.60
2019-05-20T08:33:55.991Z,9.27
2019-05-20T08:36:24.264Z,8.93
2019-05-20T08:38:52.445Z,8.60
2019-05-20T08:41:20.678Z,8.63
2019-05-20T08:43:48.938Z,8.63
2019-05-20T08:46:17.203Z,9.60
2019-05-20T08:48:48.138Z,8.47
2019-05-20T08:51:16.323Z,8.87
2019-05-20T08:53:44.519Z,8.63
2019-05-20T08:56:12.730Z,8.40
2019-05-20T08:58:40.928Z,8.40
2019-05-20T09:01:11.328Z,8.20
2019-05-20T09:03:39.234Z,9.03
2019-05-20T09:06:07.527Z,9.23
2019-05-20T09:08:35.842Z,8.43
2019-05-20T09:11:04.014Z,8.40
2019-05-20T09:13:32.252Z,9.00
2019-05-20T09:16:00.531Z,7.83
2019-05-20T09:18:28.745Z,8.43
2019-05-20T09:20:56.960Z,8.97
2019-05-20T09:23:25.155Z,8.50
2019-05-20T09:25:53.388Z,8.83
2019-05-20T09:28:21.609Z,8.70
2019-05-20T09:30:49.800Z,7.97
2019-05-20T09:33:18.164Z,7.97
2019-05-20T09:35:46.360Z,8.33
2019-05-20T09:38:20.210Z,8.53
2019-05-20T09:40:48.668Z,8.40
2019-05-20T09:43:17.005Z,8.27
2019-05-20T09:45:45.339Z,8.30
2019-05-20T09:48:13.684Z,8.70
2019-05-20T09:50:41.876Z,9.00
2019-05-20T09:53:10.081Z,8.27
2019-05-20T09:55:38.428Z,8.70
2019-05-20T09:58:07.253Z,8.67
2019-05-20T10:00:35.554Z,9.60
2019-05-20T10:03:03.995Z,9.17
2019-05-20T10:05:32.302Z,8.63
2019-05-20T10:08:00.611Z,8.50
2019-05-20T10:10:28.823Z,9.07
2019-05-20T10:12:57.063Z,8.73
2019-05-20T10:15:25.385Z,7.73
2019-05-20T10:17:53.612Z,7.87
2019-05-20T10:20:21.984Z,9.20
2019-05-20T10:22:50.191Z,8.83
2019-05-20T10:25:18.681Z,8.60
2019-05-20T10:27:46.956Z,8.90
2019-05-20T10:30:15.251Z,7.70
2019-05-20T10:32:43.481Z,8.20
2019-05-20T10:35:11.799Z,7.93
2019-05-20T10:37:40.011Z,7.37
2019-05-20T10:40:08.439Z,7.43
2019-05-20T10:42:36.653Z,8.20
2019-05-20T10:45:05.451Z,7.57
2019-05-20T10:47:33.638Z,7.67
2019-05-20T10:50:01.844Z,8.03
2019-05-20T10:52:30.169Z,8.57
2019-05-20T10:54:58.403Z,7.63
2019-05-20T10:57:26.585Z,7.10
2019-05-20T10:59:54.837Z,7.77
2019-05-20T11:02:23.055Z,7.83
2019-05-20T11:04:51.426Z,7.53
2019-05-20T11:07:19.648Z,8.30
2019-05-20T11:09:47.853Z,7.80
2019-05-20T11:12:16.042Z,7.80
2019-05-20T11:14:44.356Z,8.10
2019-05-20T11:17:15.058Z,7.50
2019-05-20T11:19:42.584Z,7.03
2019-05-20T11:22:10.928Z,7.10
2019-05-20T11:24:39.152Z,6.27
2019-05-20T11:27:07.385Z,7.07
2019-05-20T11:29:35.613Z,6.57
2019-05-20T11:32:03.821Z,6.90
2019-05-20T11:34:32.154Z,7.00
2019-05-20T11:37:00.546Z,7.33
2019-05-20T11:39:33.468Z,6.80
2019-05-20T11:41:58.790Z,7.13
2019-05-20T11:44:27.070Z,7.43
2019-05-20T11:46:55.252Z,7.30
2019-05-20T11:49:23.459Z,6.93
2019-05-20T11:51:51.653Z,6.33
2019-05-20T11:54:19.889Z,7.00
2019-05-20T11:56:48.128Z,7.07
2019-05-20T11:59:16.339Z,7.47
2019-05-20T12:01:44.518Z,7.10
2019-05-20T12:04:12.732Z,7.90
2019-05-20T12:06:40.948Z,8.87
2019-05-20T12:09:09.138Z,8.93
2019-05-20T12:11:37.359Z,8.70
2019-05-20T12:14:05.677Z,8.87
2019-05-20T12:16:33.891Z,8.30
2019-05-20T12:19:02.080Z,8.63
2019-05-20T12:21:30.304Z,8.80
2019-05-20T12:23:58.616Z,8.30
2019-05-20T12:26:26.885Z,8.07
2019-05-20T12:28:55.120Z,8.60
2019-05-20T12:31:23.390Z,8.53
2019-05-20T12:33:51.580Z,7.80
2019-05-20T12:36:19.853Z,8.97
2019-05-20T12:38:48.070Z,8.97
2019-05-20T12:41:16.364Z,8.17
2019-05-20T12:43:45.248Z,8.43
2019-05-20T12:46:13.606Z,7.80
2019-05-20T12:48:41.886Z,7.97
2019-05-20T12:51:10.093Z,8.10
2019-05-20T12:53:38.653Z,8.93
2019-05-20T12:56:06.849Z,8.77
2019-05-20T12:58:35.052Z,8.43
2019-05-20T13:01:03.483Z,9.10
2019-05-20T13:03:31.694Z,9.10
2019-05-20T13:05:59.893Z,8.90
2019-05-20T13:08:28.080Z,9.40
2019-05-20T13:10:56.271Z,8.67
2019-05-20T13:13:24.496Z,8.90
2019-05-20T13:15:52.768Z,9.97
2019-05-20T13:18:21.054Z,9.80
2019-05-20T13:20:49.343Z,10.47
2019-05-20T13:23:17.594Z,9.83
2019-05-20T13:25:45.838Z,10.23
2019-05-20T13:28:14.138Z,9.97
2019-05-20T13:30:42.373Z,9.20
2019-05-20T13:33:10.564Z,9.33
2019-05-20T13:35:38.769Z,9.97
2019-05-20T13:38:06.955Z,9.27
2019-05-20T13:40:45.711Z,9.13
2019-05-20T13:43:05.120Z,9.43
2019-05-20T13:45:33.391Z,9.80
2019-05-20T13:48:01.562Z,9.93
2019-05-20T13:50:29.788Z,9.43
2019-05-20T13:52:58.554Z,9.70
2019-05-20T13:55:26.782Z,10.53
2019-05-20T13:57:54.980Z,9.50
2019-05-20T14:00:23.305Z,10.23
2019-05-20T14:02:51.498Z,9.73
2019-05-20T14:05:19.676Z,10.37
2019-05-20T14:07:48.641Z,10.87
2019-05-20T14:10:16.858Z,10.60
2019-05-20T14:12:45.105Z,10.47
2019-05-20T14:15:13.589Z,11.00
2019-05-20T14:17:41.775Z,10.83
2019-05-20T14:20:11.473Z,11.20
2019-05-20T14:22:39.672Z,11.30
2019-05-20T14:25:07.955Z,10.00
2019-05-20T14:27:36.174Z,11.30
2019-05-20T14:30:07.985Z,11.93
2019-05-20T14:32:36.233Z,13.03
2019-05-20T14:35:05.517Z,13.17
2019-05-20T14:37:33.737Z,13.37
2019-05-20T14:40:02.115Z,13.53
2019-05-20T14:42:31.881Z,12.80
2019-05-20T14:45:00.080Z,13.80
2019-05-20T14:47:28.333Z,13.70
2019-05-20T14:49:56.597Z,14.37
2019-05-20T14:52:24.818Z,14.50
2019-05-20T14:54:53.039Z,15.23
2019-05-20T14:57:22.034Z,16.47
2019-05-20T14:59:50.274Z,18.00
2019-05-20T15:02:18.503Z,19.97
2019-05-20T15:04:46.781Z,19.40
2019-05-20T15:07:29.203Z,18.57
2019-05-20T15:09:45.035Z,18.80
2019-05-20T15:12:13.237Z,22.47
2019-05-20T15:14:42.605Z,22.63
2019-05-20T15:17:10.957Z,24.57
2019-05-20T15:19:39.212Z,22.77
2019-05-20T15:22:07.493Z,21.57
2019-05-20T15:31:18.949Z,5.70
2019-05-20T15:33:47.177Z,5.40
2019-05-20T15:44:04.530Z,5.20
2019-05-20T15:46:32.774Z,6.20
2019-05-20T15:49:00.994Z,6.30
2019-05-20T15:51:29.295Z,6.90
2019-05-20T15:53:57.563Z,7.10
2019-05-20T15:56:25.770Z,6.50
2019-05-20T15:58:53.996Z,7.37
2019-05-20T16:01:22.197Z,6.70
2019-05-20T16:03:51.551Z,7.53
2019-05-20T16:06:20.007Z,7.60
2019-05-20T16:08:48.208Z,7.80
2019-05-20T16:11:16.423Z,7.57
2019-05-20T16:13:44.632Z,7.90
2019-05-20T16:16:13.211Z,8.83
2019-05-20T16:18:41.507Z,12.43
2019-05-20T16:21:09.725Z,9.80
2019-05-20T16:23:37.915Z,6.90
2019-05-20T16:26:06.100Z,5.23
2019-05-20T16:28:34.278Z,5.30
2019-05-20T16:31:02.507Z,5.05
2019-05-20T16:33:30.668Z,5.40
2019-05-20T16:35:58.882Z,4.53
2019-05-20T16:38:27.081Z,5.27
2019-05-20T16:40:55.276Z,6.23
2019-05-20T16:43:23.452Z,7.40
2019-05-20T16:45:51.654Z,8.70
2019-05-20T16:48:19.832Z,7.97
2019-05-20T16:50:48.008Z,8.53
2019-05-20T16:53:16.184Z,8.60
2019-05-20T16:55:44.891Z,8.37
2019-05-20T16:58:13.145Z,8.93
2019-05-20T17:00:41.992Z,9.00
2019-05-20T17:03:10.205Z,8.87
2019-05-20T17:05:38.932Z,9.13
2019-05-20T17:08:07.244Z,9.50
2019-05-20T17:10:35.539Z,10.50
2019-05-20T17:13:03.811Z,11.20
2019-05-20T17:15:32.083Z,11.33
2019-05-20T17:18:00.309Z,11.50
2019-05-20T17:20:28.529Z,12.70
2019-05-20T17:22:56.768Z,12.13
2019-05-20T17:25:25.055Z,12.57
2019-05-20T17:27:53.339Z,13.53
2019-05-20T17:30:21.519Z,13.50
2019-05-20T17:32:49.704Z,14.80
2019-05-20T17:35:17.963Z,15.23
2019-05-20T17:37:46.247Z,15.47
2019-05-20T17:40:14.917Z,15.23
2019-05-20T17:42:43.100Z,15.80
2019-05-20T17:45:11.675Z,16.10
2019-05-20T17:47:39.932Z,16.57
2019-05-20T17:50:08.601Z,17.57
2019-05-20T17:52:36.805Z,16.70
2019-05-20T17:55:05.730Z,15.80
2019-05-20T17:57:33.934Z,17.50
2019-05-20T18:00:02.936Z,18.43
2019-05-20T18:02:31.276Z,18.87
2019-05-20T18:04:59.466Z,20.20
2019-05-20T18:07:27.645Z,26.90
2019-05-20T18:09:55.875Z,18.67
2019-05-20T18:12:24.132Z,17.57
2019-05-20T18:14:52.920Z,17.97
2019-05-20T18:17:21.168Z,19.47
2019-05-20T18:19:49.421Z,18.77
2019-05-20T18:22:17.633Z,16.37
2019-05-20T18:24:45.826Z,17.40
2019-05-20T18:27:15.383Z,16.93
2019-05-20T18:29:43.630Z,16.73
2019-05-20T18:32:11.990Z,17.60
2019-05-20T18:34:40.205Z,17.70
2019-05-20T18:37:08.391Z,16.00
2019-05-20T18:39:36.580Z,16.00
2019-05-20T18:42:04.772Z,15.97
2019-05-20T18:44:33.042Z,15.40
2019-05-20T18:47:01.251Z,15.47
2019-05-20T18:49:29.464Z,16.00
2019-05-20T18:51:57.677Z,16.50
2019-05-20T18:54:25.876Z,17.53
2019-05-20T18:56:54.085Z,18.23
2019-05-20T18:59:22.301Z,20.20
2019-05-20T19:02:03.750Z,20.20
2019-05-20T19:04:20.488Z,21.83
2019-05-20T19:06:48.663Z,23.70
2019-05-20T19:09:16.893Z,23.70
2019-05-20T19:11:45.153Z,24.67
2019-05-20T19:14:13.352Z,24.13
2019-05-20T19:16:41.597Z,23.33
2019-05-20T19:19:10.445Z,20.53
2019-05-20T19:21:38.672Z,21.77
2019-05-20T19:24:06.875Z,20.70
2019-05-20T19:26:35.165Z,21.80
2019-05-20T19:29:03.385Z,19.47
2019-05-20T19:31:31.621Z,18.53
2019-05-20T19:33:59.865Z,18.43
2019-05-20T19:36:28.082Z,18.60
2019-05-20T19:38:56.310Z,17.07
2019-05-20T19:41:24.548Z,17.53
2019-05-20T19:43:52.780Z,19.00
2019-05-20T19:46:21.035Z,18.70
2019-05-20T19:48:49.265Z,16.77
2019-05-20T19:51:19.116Z,17.23
2019-05-20T19:53:47.377Z,18.30
2019-05-20T19:56:15.589Z,18.45
2019-05-20T19:58:43.833Z,17.60
2019-05-20T20:01:12.035Z,18.50
2019-05-20T20:03:40.316Z,17.23
2019-05-20T20:06:08.530Z,17.77
2019-05-20T20:08:36.774Z,16.33
2019-05-20T20:11:04.972Z,16.43
2019-05-20T20:13:34.406Z,15.90
2019-05-20T20:16:03.020Z,16.70
2019-05-20T20:18:31.252Z,16.50
2019-05-20T20:20:59.487Z,16.87
2019-05-20T20:23:27.665Z,16.80
2019-05-20T20:25:56.161Z,17.90
2019-05-20T20:28:24.388Z,17.90
2019-05-20T20:30:52.646Z,19.60
2019-05-20T20:33:20.885Z,18.50
2019-05-20T20:35:49.207Z,20.40
2019-05-20T20:38:17.433Z,17.80
2019-05-20T20:40:45.629Z,19.07
2019-05-20T20:43:13.856Z,19.30
2019-05-20T20:45:42.036Z,19.60
2019-05-20T20:48:10.900Z,18.83
2019-05-20T20:50:39.158Z,19.43
2019-05-20T20:53:07.382Z,17.67
2019-05-20T20:55:35.626Z,17.47
2019-05-20T20:58:03.933Z,17.27
2019-05-20T21:00:32.110Z,16.10
2019-05-20T21:03:00.332Z,17.37
2019-05-20T21:05:28.580Z,17.17
2019-05-20T21:07:56.853Z,17.63
2019-05-20T21:10:25.081Z,17.73
2019-05-20T21:12:53.272Z,17.13
2019-05-20T21:15:21.536Z,15.80
2019-05-20T21:17:49.753Z,16.53
2019-05-20T21:20:17.971Z,17.03
2019-05-20T21:22:46.237Z,16.30
2019-05-20T21:25:14.495Z,16.27
2019-05-20T21:27:42.720Z,18.13
2019-05-20T21:30:11.000Z,18.90
2019-05-20T21:32:39.200Z,18.43
2019-05-20T21:35:08.660Z,19.20
2019-05-20T21:37:36.891Z,18.90
2019-05-20T21:40:05.135Z,18.77
2019-05-20T21:42:33.332Z,19.10
2019-05-20T21:45:01.590Z,18.97
2019-05-20T21:47:29.809Z,18.40
2019-05-20T21:49:57.995Z,19.13
2019-05-20T21:52:26.230Z,17.77
2019-05-20T21:54:54.441Z,18.73
2019-05-20T21:57:22.654Z,19.10
2019-05-20T21:59:50.885Z,19.40
2019-05-20T22:02:19.072Z,19.43
2019-05-20T22:04:47.263Z,19.30
2019-05-20T22:07:15.447Z,21.07
2019-05-20T22:09:43.635Z,20.80
2019-05-20T22:12:11.864Z,20.93
2019-05-20T22:14:41.069Z,21.83
2019-05-20T22:17:09.296Z,20.30
2019-05-20T22:19:37.545Z,21.70
2019-05-20T22:22:07.388Z,21.57
2019-05-20T22:24:35.610Z,21.50
2019-05-20T22:27:03.800Z,20.47
2019-05-20T22:29:32.017Z,20.60
2019-05-20T22:32:00.289Z,18.90
2019-05-20T22:34:28.491Z,19.90
2019-05-20T22:36:56.679Z,20.00
2019-05-20T22:39:24.897Z,21.00
2019-05-20T22:41:53.102Z,20.67
2019-05-20T22:44:21.286Z,22.53
2019-05-20T22:46:49.507Z,21.20
2019-05-20T22:49:17.727Z,20.90
2019-05-20T22:51:46.864Z,21.20
2019-05-20T22:54:15.112Z,22.53
2019-05-20T22:56:43.413Z,22.87
2019-05-20T22:59:11.706Z,22.13
2019-05-20T23:01:39.929Z,20.87
2019-05-20T23:04:08.151Z,23.10
2019-05-20T23:06:36.405Z,22.00
2019-05-20T23:09:06.082Z,22.00
2019-05-20T23:11:34.381Z,22.30
2019-05-20T23:14:02.838Z,21.67
2019-05-20T23:16:31.336Z,22.10
2019-05-20T23:18:59.660Z,21.13
2019-05-20T23:21:27.883Z,22.90
2019-05-20T23:23:56.110Z,22.40
2019-05-20T23:26:24.328Z,22.27
2019-05-20T23:28:52.629Z,22.10
2019-05-20T23:31:20.811Z,21.60
2019-05-20T23:33:49.022Z,23.77
2019-05-20T23:36:17.250Z,24.33
2019-05-20T23:38:45.514Z,23.63
2019-05-20T23:41:13.745Z,23.77
2019-05-20T23:43:42.017Z,22.93
2019-05-20T23:46:10.197Z,23.03
2019-05-20T23:48:38.391Z,21.70
2019-05-20T23:51:06.626Z,23.27
2019-05-20T23:53:34.804Z,22.80
2019-05-20T23:56:03.049Z,22.20
2019-05-20T23:58:31.234Z,22.80
